Time;durP1;ratioP1;P1;durP2;ratioP2;P2;SDS_P1;SDS_P2;PMS_P1;PMS_P2;Temp;Humidity;BMP_temperature;BMP_pressure;BME280_temperature;BME280_humidity;BME280_pressure;Samples;Min_cycle;Max_cycle;Signal;HPM_P1;HPM_P2
2022/06/08 00:00:00;;;;;;;7.07;4.25;;;16.60;99.90;;;;;;5045641;28;20029;-37
2022/06/08 00:02:30;;;;;;;8.55;4.20;;;16.60;99.90;;;;;;5046979;28;20032;-35
2022/06/08 00:04:56;;;;;;;9.93;4.28;;;16.60;99.90;;;;;;5035934;28;20474;-32
2022/06/08 00:07:21;;;;;;;7.53;4.25;;;16.60;99.90;;;;;;5036107;28;20477;-34
2022/06/08 00:09:47;;;;;;;5.97;3.88;;;16.60;99.90;;;;;;5034810;28;20036;-34
2022/06/08 00:12:13;;;;;;;5.95;3.35;;;16.60;99.90;;;;;;5047383;28;20477;-34
2022/06/08 00:14:39;;;;;;;8.90;4.55;;;16.60;99.90;;;;;;5037224;28;20112;-38
2022/06/08 00:17:05;;;;;;;11.13;5.72;;;16.60;99.90;;;;;;5046828;28;20022;-33
2022/06/08 00:19:31;;;;;;;11.63;4.88;;;16.60;99.90;;;;;;5034398;28;20041;-34
2022/06/08 00:21:57;;;;;;;7.28;3.88;;;16.60;99.90;;;;;;5034656;28;20022;-36
2022/06/08 00:24:23;;;;;;;5.00;3.67;;;16.60;99.90;;;;;;5052068;28;20026;-34
2022/06/08 00:26:48;;;;;;;8.27;3.95;;;16.60;99.90;;;;;;5037812;28;20104;-31
2022/06/08 00:29:14;;;;;;;9.10;4.53;;;16.60;99.90;;;;;;5042828;28;20029;-37
2022/06/08 00:31:40;;;;;;;7.38;4.82;;;16.50;99.90;;;;;;5049203;28;20018;-48
2022/06/08 00:34:05;;;;;;;11.70;4.78;;;16.50;99.90;;;;;;5034612;28;20017;-38
2022/06/08 00:36:31;;;;;;;8.65;4.90;;;16.60;99.90;;;;;;5053402;28;20071;-39
2022/06/08 00:38:56;;;;;;;8.13;4.68;;;16.50;99.90;;;;;;5051043;28;20125;-36
2022/06/08 00:41:52;;;;;;;8.90;5.30;;;16.50;99.90;;;;;;5034155;28;20026;-32
2022/06/08 00:44:32;;;;;;;8.57;4.53;;;16.50;99.90;;;;;;5036801;28;20037;-38
2022/06/08 00:47:00;;;;;;;9.30;4.97;;;16.50;99.90;;;;;;5034038;28;20100;-35
2022/06/08 00:49:45;;;;;;;9.93;4.93;;;16.50;99.90;;;;;;5048708;28;20427;-37
2022/06/08 00:52:13;;;;;;;13.68;5.90;;;16.50;99.90;;;;;;5052993;28;20036;-38
2022/06/08 00:54:43;;;;;;;13.43;5.50;;;16.40;99.90;;;;;;5040645;28;20435;-39
2022/06/08 00:57:15;;;;;;;10.90;6.38;;;16.40;99.90;;;;;;5043987;28;20100;-38
2022/06/08 00:59:47;;;;;;;16.45;6.22;;;16.40;99.90;;;;;;5033882;28;20029;-33
2022/06/08 01:02:13;;;;;;;13.13;5.55;;;16.40;99.90;;;;;;5033622;28;20018;-32
2022/06/08 01:04:38;;;;;;;13.93;5.65;;;16.40;99.90;;;;;;5042897;28;20032;-31
2022/06/08 01:07:05;;;;;;;12.05;6.13;;;16.40;99.90;;;;;;5033741;28;20021;-33
2022/06/08 01:09:37;;;;;;;12.82;5.97;;;16.40;99.90;;;;;;5033726;28;20036;-31
2022/06/08 01:12:17;;;;;;;17.35;7.07;;;16.40;99.90;;;;;;5035730;28;20492;-32
2022/06/08 01:14:43;;;;;;;9.90;6.45;;;16.40;99.90;;;;;;5032945;28;20029;-36
2022/06/08 01:17:12;;;;;;;13.00;6.43;;;16.40;99.90;;;;;;5052079;28;20029;-35
2022/06/08 01:19:41;;;;;;;17.48;6.95;;;16.40;99.90;;;;;;5050662;28;20080;-37
2022/06/08 01:22:11;;;;;;;14.80;6.43;;;16.40;99.90;;;;;;5042387;28;20028;-37
2022/06/08 01:24:37;;;;;;;11.23;6.65;;;16.40;99.90;;;;;;5039192;28;20473;-32
2022/06/08 01:27:21;;;;;;;11.50;7.07;;;16.40;99.90;;;;;;5048637;28;20056;-41
2022/06/08 01:29:56;;;;;;;13.27;6.72;;;16.40;99.90;;;;;;5045270;28;20043;-34
2022/06/08 01:32:35;;;;;;;12.80;7.20;;;16.40;99.90;;;;;;5051305;28;20029;-38
2022/06/08 01:35:27;;;;;;;24.17;8.82;;;16.40;99.90;;;;;;5036421;28;20095;-34
2022/06/08 01:38:23;;;;;;;17.73;9.85;;;16.40;99.90;;;;;;5038518;28;20470;-36
2022/06/08 01:41:13;;;;;;;17.30;8.65;;;16.40;99.90;;;;;;5041975;28;20132;-35
2022/06/08 01:43:42;;;;;;;15.65;9.50;;;16.40;99.90;;;;;;5053429;28;20037;-32
2022/06/08 01:46:20;;;;;;;18.48;9.70;;;16.40;99.90;;;;;;5037891;28;20029;-35
2022/06/08 01:49:00;;;;;;;21.88;10.02;;;16.40;99.90;;;;;;5032738;28;20093;-36
2022/06/08 01:51:47;;;;;;;21.20;10.27;;;16.40;99.90;;;;;;5033175;28;20079;-37
2022/06/08 01:54:31;;;;;;;21.95;11.43;;;16.40;99.90;;;;;;5041563;28;20019;-36
2022/06/08 01:57:44;;;;;;;25.40;10.68;;;16.40;99.90;;;;;;5053010;28;20489;-35
2022/06/08 02:00:23;;;;;;;17.88;10.35;;;16.40;99.90;;;;;;5050509;28;20029;-36
2022/06/08 02:03:04;;;;;;;20.77;10.90;;;16.30;99.90;;;;;;5037579;28;20385;-40
2022/06/08 02:05:53;;;;;;;22.05;10.38;;;16.30;99.90;;;;;;5053064;28;20504;-34
2022/06/08 02:08:45;;;;;;;20.38;9.95;;;16.20;99.90;;;;;;5051047;28;20017;-36
2022/06/08 02:11:27;;;;;;;26.42;11.27;;;16.20;99.90;;;;;;5032945;28;20547;-36
2022/06/08 02:14:00;;;;;;;23.48;11.55;;;16.10;99.90;;;;;;5031319;28;20026;-37
2022/06/08 02:16:41;;;;;;;18.45;10.77;;;16.10;99.90;;;;;;5049196;28;20116;-32
2022/06/08 02:19:12;;;;;;;21.65;11.50;;;16.00;99.90;;;;;;5035813;28;20041;-33
2022/06/08 02:21:55;;;;;;;29.10;11.60;;;16.10;99.90;;;;;;5032588;28;20068;-38
2022/06/08 02:24:36;;;;;;;21.98;10.95;;;16.00;99.90;;;;;;5033088;28;20481;-37
2022/06/08 02:27:08;;;;;;;45.28;12.57;;;15.90;99.90;;;;;;5036818;28;20039;-36
2022/06/08 02:29:43;;;;;;;22.80;10.98;;;15.90;99.90;;;;;;5045131;28;20044;-37
2022/06/08 02:35:08;;;;;;;20.45;10.82;;;15.90;99.90;;;;;;5036629;28;20032;-37
2022/06/08 02:37:35;;;;;;;19.50;10.15;;;15.80;99.90;;;;;;5036969;28;20473;-38
2022/06/08 02:40:19;;;;;;;20.48;10.95;;;15.80;99.90;;;;;;5046920;28;20508;-37
2022/06/08 02:42:50;;;;;;;24.10;11.38;;;15.80;99.90;;;;;;5053604;28;20025;-36
2022/06/08 02:45:20;;;;;;;18.95;11.13;;;15.80;99.90;;;;;;5051543;28;20017;-36
2022/06/08 02:47:48;;;;;;;26.13;12.05;;;15.80;99.90;;;;;;5042187;28;20036;-33
2022/06/08 02:50:18;;;;;;;20.80;10.07;;;15.70;99.90;;;;;;5035159;28;20109;-37
2022/06/08 02:52:46;;;;;;;20.15;11.15;;;15.70;99.90;;;;;;5034161;28;20046;-37
2022/06/08 02:55:18;;;;;;;21.42;10.00;;;15.70;99.90;;;;;;5047473;28;20425;-35
2022/06/08 02:57:56;;;;;;;19.45;10.00;;;15.60;99.90;;;;;;5039300;28;20083;-33
2022/06/08 03:00:30;;;;;;;18.60;9.88;;;15.60;99.90;;;;;;5040354;28;20117;-33
2022/06/08 03:03:02;;;;;;;24.70;11.52;;;15.60;99.90;;;;;;5042807;28;20025;-34
2022/06/08 03:05:33;;;;;;;22.33;11.68;;;15.50;99.90;;;;;;5037128;28;20497;-34
2022/06/08 03:08:12;;;;;;;18.40;9.65;;;15.60;99.90;;;;;;5040251;28;20053;-36
2022/06/08 03:10:41;;;;;;;20.17;11.00;;;15.60;99.90;;;;;;5039763;28;20047;-33
2022/06/08 03:13:16;;;;;;;21.40;10.43;;;15.70;99.90;;;;;;5041014;28;20488;-32
2022/06/08 03:15:43;;;;;;;20.88;10.43;;;15.60;99.90;;;;;;5035904;28;20497;-34
2022/06/08 03:18:09;;;;;;;17.95;9.75;;;15.50;99.90;;;;;;5035753;28;20087;-31
2022/06/08 03:20:35;;;;;;;21.65;12.27;;;15.50;99.90;;;;;;5035999;28;20045;-34
2022/06/08 03:23:01;;;;;;;20.33;10.48;;;15.60;99.90;;;;;;5047349;28;20481;-37
2022/06/08 03:25:27;;;;;;;24.85;11.98;;;15.50;99.90;;;;;;5055544;28;20074;-32
2022/06/08 03:27:53;;;;;;;15.35;9.00;;;15.50;99.90;;;;;;5053113;28;20082;-33
2022/06/08 03:30:20;;;;;;;19.75;8.82;;;15.50;99.90;;;;;;5035367;28;20537;-35
2022/06/08 03:32:46;;;;;;;15.02;8.25;;;15.50;99.90;;;;;;5035559;28;20379;-34
2022/06/08 03:35:12;;;;;;;21.67;8.40;;;15.50;99.90;;;;;;5049565;28;20021;-32
2022/06/08 03:37:38;;;;;;;13.13;7.10;;;15.50;99.90;;;;;;5053979;28;20025;-34
2022/06/08 03:40:04;;;;;;;14.73;7.18;;;15.50;99.90;;;;;;5041364;28;20029;-30
2022/06/08 03:42:30;;;;;;;12.40;7.20;;;15.50;99.90;;;;;;5049173;28;20037;-34
2022/06/08 03:44:55;;;;;;;18.67;7.18;;;15.50;99.90;;;;;;5043315;28;20104;-48
2022/06/08 03:47:25;;;;;;;12.82;7.05;;;15.50;99.90;;;;;;5053796;28;20128;-37
2022/06/08 03:49:53;;;;;;;17.40;7.80;;;15.60;99.90;;;;;;5041076;28;20477;-37
2022/06/08 03:52:22;;;;;;;15.10;7.13;;;15.60;99.90;;;;;;5037943;28;20477;-37
2022/06/08 03:54:52;;;;;;;14.65;7.82;;;15.70;99.90;;;;;;5045400;28;20136;-36
2022/06/08 03:57:19;;;;;;;13.13;7.25;;;15.70;99.90;;;;;;5055132;28;20029;-35
2022/06/08 03:59:47;;;;;;;18.67;8.65;;;15.80;99.90;;;;;;5051186;28;20086;-36
2022/06/08 04:02:13;;;;;;;13.98;7.28;;;15.80;99.90;;;;;;5038914;28;20091;-55
2022/06/08 04:04:39;;;;;;;13.32;7.43;;;15.80;99.90;;;;;;5035268;28;20021;-31
2022/06/08 04:07:06;;;;;;;12.02;7.60;;;15.90;99.90;;;;;;5046065;28;20108;-48
2022/06/08 04:09:32;;;;;;;18.15;7.43;;;15.90;99.90;;;;;;5046523;28;20500;-36
2022/06/08 04:12:17;;;;;;;15.43;7.68;;;15.90;99.90;;;;;;5034795;28;20028;-37
2022/06/08 04:14:43;;;;;;;12.80;7.07;;;16.00;99.90;;;;;;5048378;28;20495;-37
2022/06/08 04:17:08;;;;;;;14.73;8.27;;;16.00;99.90;;;;;;5053466;28;20032;-38
2022/06/08 04:19:34;;;;;;;15.95;7.65;;;16.00;99.90;;;;;;5042634;28;20033;-36
2022/06/08 04:22:00;;;;;;;15.32;8.05;;;16.00;99.90;;;;;;5046768;28;20079;-37
2022/06/08 04:24:25;;;;;;;15.93;7.70;;;16.10;99.90;;;;;;5035891;28;20075;-38
2022/06/08 04:26:52;;;;;;;13.35;7.78;;;16.00;99.90;;;;;;5054483;28;20029;-38
2022/06/08 04:29:18;;;;;;;13.65;7.93;;;16.10;99.90;;;;;;5047249;28;20018;-38
2022/06/08 04:31:45;;;;;;;13.32;7.60;;;16.10;99.90;;;;;;5034471;28;20036;-38
2022/06/08 04:34:11;;;;;;;14.75;7.63;;;16.10;99.90;;;;;;5054339;28;20021;-37
2022/06/08 04:36:40;;;;;;;11.43;6.70;;;16.20;99.90;;;;;;5053206;28;20096;-38
2022/06/08 04:39:09;;;;;;;14.38;7.10;;;16.20;99.90;;;;;;5049213;28;20287;-32
2022/06/08 04:41:54;;;;;;;15.35;7.90;;;16.30;99.90;;;;;;5034082;28;20091;-32
2022/06/08 04:44:21;;;;;;;15.18;7.00;;;16.40;99.90;;;;;;5034233;28;20029;-34
2022/06/08 04:46:46;;;;;;;14.10;7.75;;;16.40;99.90;;;;;;5038593;28;20017;-36
2022/06/08 04:49:12;;;;;;;13.32;7.05;;;16.50;99.90;;;;;;5042441;28;20533;-33
2022/06/08 04:51:37;;;;;;;13.38;7.57;;;16.60;99.90;;;;;;5040973;28;20021;-33
2022/06/08 04:54:03;;;;;;;15.43;8.30;;;16.60;99.90;;;;;;5040972;28;20052;-33
2022/06/08 04:56:29;;;;;;;16.20;8.45;;;16.60;99.90;;;;;;5053919;28;20453;-51
2022/06/08 04:58:54;;;;;;;11.73;7.72;;;16.60;99.90;;;;;;5048873;28;20029;-33
2022/06/08 05:01:21;;;;;;;17.40;8.02;;;16.60;99.90;;;;;;5049661;28;20112;-40
2022/06/08 05:03:46;;;;;;;14.93;8.30;;;16.70;99.90;;;;;;5052664;28;20021;-36
2022/06/08 05:06:12;;;;;;;15.63;8.30;;;16.60;99.90;;;;;;5052863;28;20032;-31
2022/06/08 05:08:40;;;;;;;14.05;8.52;;;16.70;99.90;;;;;;5043557;28;20101;-35
2022/06/08 05:11:06;;;;;;;14.30;8.40;;;16.70;99.90;;;;;;5030921;28;20366;-32
2022/06/08 05:13:33;;;;;;;15.77;8.10;;;16.70;99.90;;;;;;5036135;28;20489;-35
2022/06/08 05:15:59;;;;;;;15.45;7.90;;;16.70;99.90;;;;;;5034468;28;20033;-32
2022/06/08 05:18:25;;;;;;;15.68;8.80;;;16.70;99.90;;;;;;5047128;28;20028;-35
2022/06/08 05:20:50;;;;;;;15.85;9.32;;;16.70;99.90;;;;;;5032347;28;20092;-37
2022/06/08 05:23:20;;;;;;;12.77;8.27;;;16.70;99.90;;;;;;5041139;28;20017;-36
2022/06/08 05:25:46;;;;;;;11.63;7.60;;;16.70;99.90;;;;;;5053357;28;20057;-39
2022/06/08 05:28:13;;;;;;;16.17;8.80;;;16.80;99.90;;;;;;5049024;28;20056;-37
2022/06/08 05:30:40;;;;;;;12.65;8.07;;;16.70;99.90;;;;;;5042904;28;20485;-36
2022/06/08 05:33:06;;;;;;;13.27;7.97;;;16.70;99.90;;;;;;5046265;28;20532;-35
2022/06/08 05:35:32;;;;;;;15.13;7.97;;;16.80;99.90;;;;;;5040972;28;20037;-36
2022/06/08 05:37:58;;;;;;;15.25;8.80;;;16.80;99.90;;;;;;5052081;28;20049;-33
2022/06/08 05:40:28;;;;;;;13.05;8.38;;;16.80;99.90;;;;;;5039985;28;20033;-35
2022/06/08 05:42:54;;;;;;;14.40;7.28;;;16.90;99.90;;;;;;5040595;28;20033;-30
2022/06/08 05:45:23;;;;;;;13.65;7.70;;;17.00;99.90;;;;;;5053193;28;20503;-32
2022/06/08 05:47:49;;;;;;;15.57;7.18;;;17.00;99.90;;;;;;5053152;28;20026;-35
2022/06/08 05:50:15;;;;;;;14.90;7.88;;;17.00;99.90;;;;;;5033890;28;20026;-32
2022/06/08 05:52:41;;;;;;;11.15;7.60;;;17.00;99.90;;;;;;5051362;28;20033;-34
2022/06/08 05:55:09;;;;;;;13.15;7.68;;;17.00;99.90;;;;;;5050089;28;20028;-31
2022/06/08 05:57:36;;;;;;;;;;;17.20;99.90;;;;;;5052892;28;20060;-31
2022/06/08 06:00:04;;;;;;;11.10;6.63;;;17.30;99.90;;;;;;5051061;28;19913;-35
2022/06/08 06:02:30;;;;;;;11.18;6.40;;;17.40;99.90;;;;;;5045765;28;20028;-33
2022/06/08 06:04:55;;;;;;;11.85;7.53;;;17.50;99.90;;;;;;5056180;28;20112;-38
2022/06/08 06:07:21;;;;;;;11.55;6.70;;;17.50;99.90;;;;;;5057021;28;20493;-34
2022/06/08 06:09:46;;;;;;;11.40;6.43;;;17.60;99.90;;;;;;5049563;28;20033;-31
2022/06/08 06:12:12;;;;;;;14.20;7.60;;;17.60;99.90;;;;;;5052620;28;20029;-38
2022/06/08 06:14:38;;;;;;;11.45;6.38;;;17.60;99.90;;;;;;5047666;28;20057;-33
2022/06/08 06:17:04;;;;;;;10.27;6.05;;;17.70;99.90;;;;;;5036836;28;20025;-31
2022/06/08 06:19:29;;;;;;;9.80;6.25;;;17.80;99.90;;;;;;5039306;28;20048;-36
2022/06/08 06:21:55;;;;;;;13.15;6.30;;;17.90;99.90;;;;;;5048023;28;21559;-33
2022/06/08 06:24:21;;;;;;;11.85;6.47;;;18.30;99.90;;;;;;5052449;28;20083;-38
2022/06/08 06:26:48;;;;;;;9.68;6.38;;;18.60;99.90;;;;;;5056710;28;20079;-32
2022/06/08 06:29:14;;;;;;;7.18;5.80;;;18.90;99.90;;;;;;5044735;28;20033;-36
2022/06/08 06:31:48;;;;;;;16.73;5.85;;;19.30;99.90;;;;;;5036765;28;20496;-35
2022/06/08 06:34:15;;;;;;;6.63;4.50;;;19.40;99.90;;;;;;5048696;28;20481;-34
2022/06/08 06:36:41;;;;;;;;;;;19.30;99.90;;;;;;5056052;28;20033;-34
2022/06/08 06:39:07;;;;;;;8.73;5.35;;;19.70;99.90;;;;;;5055526;28;20043;-34
2022/06/08 06:41:33;;;;;;;9.93;5.07;;;20.40;99.90;;;;;;5039199;28;20041;-37
2022/06/08 06:44:00;;;;;;;8.32;5.47;;;20.80;99.90;;;;;;5036508;28;20021;-34
2022/06/08 06:46:26;;;;;;;11.77;4.35;;;20.70;99.90;;;;;;5037237;28;20118;-37
2022/06/08 06:48:51;;;;;;;9.38;5.07;;;20.50;99.90;;;;;;5038679;28;20482;-34
2022/06/08 06:51:17;;;;;;;4.85;4.25;;;20.30;99.90;;;;;;5048551;28;20052;-36
2022/06/08 06:53:43;;;;;;;10.80;4.70;;;20.20;99.90;;;;;;5039304;28;20124;-36
2022/06/08 06:56:09;;;;;;;6.15;4.70;;;20.00;99.90;;;;;;5044448;28;20542;-36
2022/06/08 06:58:35;;;;;;;5.65;4.32;;;20.00;99.90;;;;;;5048168;28;20029;-38
2022/06/08 07:01:01;;;;;;;7.72;5.40;;;20.00;99.90;;;;;;5055939;28;20036;-34
2022/06/08 07:03:27;;;;;;;9.13;4.65;;;19.90;99.90;;;;;;5040252;28;20033;-35
2022/06/08 07:05:53;;;;;;;9.80;4.85;;;19.90;99.90;;;;;;5055938;28;20025;-37
2022/06/08 07:08:19;;;;;;;5.47;4.43;;;20.00;99.90;;;;;;5053445;28;20024;-39
2022/06/08 07:11:32;;;;;;;7.20;5.18;;;20.60;99.90;;;;;;5050183;28;20053;-37
2022/06/08 07:13:30;;;;;;;10.60;5.25;;;21.20;99.90;;;;;;5046768;28;20028;-51
2022/06/08 07:15:55;;;;;;;11.32;4.82;;;21.30;99.90;;;;;;5055755;28;20483;-38
2022/06/08 07:18:21;;;;;;;6.75;4.35;;;21.00;99.90;;;;;;5051176;28;20039;-38
2022/06/08 07:20:47;;;;;;;7.18;4.28;;;20.70;99.90;;;;;;5036646;28;20067;-39
2022/06/08 07:23:12;;;;;;;6.38;4.07;;;20.50;99.90;;;;;;5051885;28;20021;-39
2022/06/08 07:25:38;;;;;;;6.35;3.90;;;20.30;99.90;;;;;;5055749;28;20047;-38
2022/06/08 07:28:04;;;;;;;5.95;3.90;;;20.30;99.90;;;;;;5054827;28;20100;-38
2022/06/08 07:30:29;;;;;;;6.00;3.75;;;20.20;99.90;;;;;;5035925;28;20037;-36
2022/06/08 07:32:55;;;;;;;7.45;3.20;;;20.00;99.90;;;;;;5038088;28;20025;-34
2022/06/08 07:35:20;;;;;;;7.15;4.05;;;20.00;99.90;;;;;;5049133;28;20476;-33
2022/06/08 07:37:46;;;;;;;4.65;3.55;;;19.90;99.90;;;;;;5035499;28;20077;-37
2022/06/08 07:40:12;;;;;;;11.52;3.55;;;19.80;99.90;;;;;;5035304;28;20037;-37
2022/06/08 07:42:37;;;;;;;5.97;3.85;;;19.70;99.90;;;;;;5035020;28;20084;-34
2022/06/08 07:45:05;;;;;;;7.22;3.83;;;19.60;99.90;;;;;;5039888;28;20108;-32
2022/06/08 07:47:31;;;;;;;6.35;4.40;;;19.50;99.90;;;;;;5042538;28;20478;-34
2022/06/08 07:49:57;;;;;;;7.18;3.53;;;19.50;99.90;;;;;;5037449;28;20032;-35
2022/06/08 07:52:22;;;;;;;6.75;3.75;;;19.40;99.90;;;;;;5042753;28;20029;-45
2022/06/08 07:54:49;;;;;;;6.68;4.10;;;19.40;99.90;;;;;;5034308;28;20032;-35
2022/06/08 07:57:25;;;;;;;4.88;3.97;;;19.40;99.90;;;;;;5035096;28;20029;-35
2022/06/08 07:59:51;;;;;;;8.13;3.92;;;19.50;99.90;;;;;;5052085;28;20090;-34
2022/06/08 08:02:17;;;;;;;3.50;3.20;;;19.60;99.90;;;;;;5041134;28;20115;-36
2022/06/08 08:04:44;;;;;;;5.47;3.42;;;19.70;99.90;;;;;;5034313;28;20025;-47
2022/06/08 08:07:11;;;;;;;5.47;3.92;;;19.70;99.90;;;;;;5053480;28;20017;-38
2022/06/08 08:09:38;;;;;;;4.70;4.20;;;19.90;99.90;;;;;;5055049;28;20017;-37
2022/06/08 08:12:05;;;;;;;7.53;4.30;;;19.90;99.90;;;;;;5039929;28;20025;-37
2022/06/08 08:14:33;;;;;;;8.77;4.15;;;20.00;99.90;;;;;;5033118;28;20101;-39
2022/06/08 08:17:00;;;;;;;5.55;4.35;;;20.10;99.90;;;;;;5067484;28;20114;-37
2022/06/08 08:19:26;;;;;;;7.07;4.23;;;20.30;99.90;;;;;;5042118;28;20040;-37
2022/06/08 08:21:52;;;;;;;7.60;4.25;;;20.40;99.90;;;;;;5043278;28;20024;-38
2022/06/08 08:24:19;;;;;;;7.35;4.18;;;20.60;99.90;;;;;;5053539;28;20136;-39
2022/06/08 08:26:46;;;;;;;5.93;3.55;;;20.50;99.90;;;;;;5053218;28;20029;-37
2022/06/08 08:29:13;;;;;;;5.30;3.88;;;20.60;99.90;;;;;;5051183;28;20515;-38
2022/06/08 08:31:39;;;;;;;6.07;3.78;;;20.70;99.90;;;;;;5033174;28;20428;-38
2022/06/08 08:34:05;;;;;;;5.68;3.55;;;20.80;99.90;;;;;;5034547;28;20397;-37
2022/06/08 08:36:31;;;;;;;5.60;3.45;;;21.00;99.90;;;;;;5034404;28;20032;-37
2022/06/08 08:38:58;;;;;;;7.07;2.75;;;21.00;99.90;;;;;;5034346;28;20029;-58
2022/06/08 08:44:28;;;;;;;5.50;3.90;;;21.20;99.90;;;;;;5054434;28;20447;-38
2022/06/08 08:47:23;;;;;;;8.60;3.90;;;21.10;99.90;;;;;;5034211;28;20040;-38
2022/06/08 08:49:59;;;;;;;5.38;2.70;;;21.10;99.90;;;;;;5032901;28;20026;-47
2022/06/08 08:52:47;;;;;;;12.10;3.65;;;20.90;99.90;;;;;;5032761;28;20033;-43
2022/06/08 08:55:34;;;;;;;7.47;3.38;;;20.90;99.90;;;;;;5034068;28;20033;-38
2022/06/08 08:58:02;;;;;;;;;;;21.00;99.90;;;;;;5036089;28;20072;-36
2022/06/08 09:00:50;;;;;;;8.38;3.47;;;21.10;99.90;;;;;;5033731;28;19936;-36
2022/06/08 09:03:39;;;;;;;6.72;3.78;;;21.30;99.90;;;;;;5049048;28;20032;-37
2022/06/08 09:06:17;;;;;;;5.68;3.97;;;21.50;99.90;;;;;;5053871;28;20075;-38
2022/06/08 09:08:50;;;;;;;6.22;3.70;;;21.60;99.90;;;;;;5034784;28;20029;-37
2022/06/08 09:11:29;;;;;;;8.98;3.92;;;21.50;99.90;;;;;;5033663;28;20029;-40
2022/06/08 09:14:04;;;;;;;6.72;4.13;;;21.60;99.90;;;;;;5033700;28;20156;-32
2022/06/08 09:16:39;;;;;;;10.77;5.18;;;21.60;99.90;;;;;;5033709;28;20025;-34
2022/06/08 09:19:23;;;;;;;7.15;4.40;;;21.70;99.90;;;;;;5034175;28;20418;-35
2022/06/08 09:22:03;;;;;;;6.45;4.32;;;21.80;99.90;;;;;;5033509;28;20481;-34
2022/06/08 09:24:40;;;;;;;8.88;5.43;;;21.90;99.90;;;;;;5032291;28;20033;-35
2022/06/08 09:27:30;;;;;;;4.75;3.97;;;21.90;99.90;;;;;;5033475;28;20021;-35
2022/06/08 09:29:58;;;;;;;8.20;3.78;;;21.80;99.90;;;;;;5033665;28;20034;-37
2022/06/08 09:32:39;;;;;;;4.65;3.95;;;21.70;99.90;;;;;;5033381;28;20021;-35
2022/06/08 09:35:39;;;;;;;5.03;4.13;;;21.70;99.90;;;;;;5033276;28;20494;-35
2022/06/08 09:38:11;;;;;;;4.35;4.00;;;21.40;99.90;;;;;;5033349;28;20021;-35
2022/06/08 09:40:49;;;;;;;7.85;4.43;;;21.20;99.90;;;;;;5033501;28;20025;-33
2022/06/08 09:43:39;;;;;;;6.18;4.47;;;21.10;99.90;;;;;;5033263;28;20018;-36
2022/06/08 09:52:53;;;;;;;8.52;4.80;;;20.70;99.90;;;;;;5033354;28;20549;-40
2022/06/08 09:55:53;;;;;;;9.40;5.18;;;20.50;99.90;;;;;;5032801;28;20022;-35
2022/06/08 09:58:39;;;;;;;5.20;4.70;;;20.30;99.90;;;;;;5038311;28;20652;-37
2022/06/08 10:01:27;;;;;;;8.48;4.57;;;20.20;99.90;;;;;;5049199;28;20120;-31
2022/06/08 10:04:20;;;;;;;9.77;3.72;;;20.00;99.90;;;;;;5032612;28;20525;-37
2022/06/08 10:06:52;;;;;;;7.63;2.60;;;19.90;99.90;;;;;;5032582;28;20386;-35
2022/06/08 10:09:23;;;;;;;5.63;2.75;;;19.80;99.90;;;;;;5033029;28;20030;-34
2022/06/08 10:12:30;;;;;;;7.10;2.22;;;19.80;99.90;;;;;;5032988;28;20030;-33
2022/06/08 10:15:03;;;;;;;;;;;19.70;99.90;;;;;;5031537;28;20045;-33
2022/06/08 10:17:37;;;;;;;4.82;2.17;;;19.60;99.90;;;;;;5040357;28;19912;-35
2022/06/08 10:20:11;;;;;;;6.43;1.75;;;19.60;99.90;;;;;;5035336;28;20057;-34
2022/06/08 10:22:43;;;;;;;1.40;0.80;;;19.50;99.90;;;;;;5049358;28;20106;-35
2022/06/08 10:25:17;;;;;;;2.40;1.00;;;19.50;99.90;;;;;;5053057;28;20017;-31
2022/06/08 10:27:54;;;;;;;3.20;1.35;;;19.40;99.90;;;;;;5052151;28;20492;-39
2022/06/08 10:30:47;;;;;;;3.95;1.08;;;19.30;99.90;;;;;;5052750;28;20032;-39
2022/06/08 10:33:16;;;;;;;1.45;0.60;;;19.30;99.90;;;;;;5049086;28;20025;-39
2022/06/08 10:35:48;;;;;;;5.85;0.75;;;19.20;99.90;;;;;;5032757;28;20104;-39
2022/06/08 10:38:25;;;;;;;3.45;1.17;;;19.20;99.90;;;;;;5033000;28;20025;-33
2022/06/08 10:43:58;;;;;;;3.33;1.00;;;19.20;99.90;;;;;;5025135;28;19959;-35
2022/06/08 10:46:42;;;;;;;6.47;0.95;;;19.10;99.90;;;;;;5032865;28;20109;-34
2022/06/08 10:49:29;;;;;;;2.80;1.48;;;19.20;99.90;;;;;;5036117;28;20072;-37
2022/06/08 10:52:15;;;;;;;9.15;1.20;;;19.10;99.90;;;;;;5042368;28;20033;-38
2022/06/08 10:54:55;;;;;;;2.30;1.40;;;19.10;99.90;;;;;;5056249;28;20492;-37
2022/06/08 10:57:36;;;;;;;4.80;1.15;;;19.00;99.90;;;;;;5044556;28;20374;-36
2022/06/08 11:00:20;;;;;;;4.95;1.40;;;18.80;99.90;;;;;;5053440;28;20412;-37
2022/06/08 11:02:58;;;;;;;4.20;1.13;;;18.60;99.90;;;;;;5042459;28;20389;-37
2022/06/08 11:05:47;;;;;;;1.75;0.68;;;18.60;99.90;;;;;;5056342;28;20485;-38
2022/06/08 11:08:21;;;;;;;3.50;0.80;;;18.40;99.90;;;;;;5036410;28;20037;-37
2022/06/08 11:10:48;;;;;;;1.73;0.70;;;18.30;99.90;;;;;;5048455;28;20433;-38
2022/06/08 11:13:23;;;;;;;2.28;0.77;;;18.30;99.90;;;;;;5046815;28;20040;-38
2022/06/08 11:15:53;;;;;;;3.05;1.05;;;18.20;99.90;;;;;;5036127;28;20026;-37
2022/06/08 11:18:34;;;;;;;3.28;0.88;;;18.10;99.90;;;;;;5035814;28;20056;-38
2022/06/08 11:21:15;;;;;;;1.90;1.05;;;18.00;99.90;;;;;;5046251;28;20473;-37
2022/06/08 11:23:55;;;;;;;1.58;0.90;;;17.90;99.90;;;;;;5055775;28;20028;-37
2022/06/08 11:26:23;;;;;;;1.90;0.70;;;17.70;99.90;;;;;;5053083;28;20079;-38
2022/06/08 11:29:00;;;;;;;1.02;0.98;;;17.70;99.90;;;;;;5043193;28;20021;-37
2022/06/08 11:31:26;;;;;;;2.90;1.20;;;17.60;99.90;;;;;;5035752;28;20064;-37
2022/06/08 11:34:03;;;;;;;5.05;1.73;;;17.60;99.90;;;;;;5040650;28;20410;-37
2022/06/08 11:36:32;;;;;;;3.60;1.13;;;17.50;99.90;;;;;;5045820;28;20477;-38
2022/06/08 11:39:02;;;;;;;5.45;1.17;;;17.40;99.90;;;;;;5046974;28;20040;-37
2022/06/08 11:41:41;;;;;;;2.33;1.02;;;17.30;99.90;;;;;;5046275;28;20377;-37
2022/06/08 11:44:17;;;;;;;4.63;1.30;;;17.30;99.90;;;;;;5039237;28;20491;-38
2022/06/08 11:46:53;;;;;;;3.17;1.40;;;17.20;99.90;;;;;;5051187;28;20164;-37
2022/06/08 11:49:39;;;;;;;5.38;1.40;;;17.20;99.90;;;;;;5052401;28;20075;-38
2022/06/08 11:52:31;;;;;;;8.88;1.80;;;17.20;99.90;;;;;;5041272;28;20025;-38
2022/06/08 11:55:27;;;;;;;7.45;1.63;;;17.10;99.90;;;;;;5053728;28;20033;-37
2022/06/08 11:58:08;;;;;;;10.77;1.60;;;17.10;99.90;;;;;;5051467;28;20069;-39
2022/06/08 12:00:35;;;;;;;4.25;2.22;;;17.10;99.90;;;;;;5037100;28;20029;-39
2022/06/08 12:03:16;;;;;;;5.35;1.70;;;17.10;99.90;;;;;;5051286;28;20504;-34
2022/06/08 12:05:47;;;;;;;5.47;1.55;;;17.00;99.90;;;;;;5032086;28;20032;-37
2022/06/08 12:08:21;;;;;;;5.63;2.08;;;16.90;99.90;;;;;;5039285;28;20145;-36
2022/06/08 12:10:47;;;;;;;4.80;1.85;;;16.90;99.90;;;;;;5034164;28;20032;-37
2022/06/08 12:13:18;;;;;;;4.70;1.65;;;16.90;99.90;;;;;;5034263;28;20489;-39
2022/06/08 12:16:02;;;;;;;7.97;2.55;;;16.90;99.90;;;;;;5035421;28;20056;-39
2022/06/08 12:18:39;;;;;;;3.75;1.92;;;16.80;99.90;;;;;;5041885;28;20025;-38
2022/06/08 12:21:20;;;;;;;6.50;1.85;;;16.90;99.90;;;;;;5033927;28;20033;-37
2022/06/08 12:24:04;;;;;;;7.30;2.70;;;16.80;99.90;;;;;;5035977;28;20041;-39
2022/06/08 12:26:45;;;;;;;3.92;1.90;;;16.80;99.90;;;;;;5040693;28;20086;-58
2022/06/08 12:29:20;;;;;;;3.03;1.90;;;16.80;99.90;;;;;;5033552;28;20069;-36
2022/06/08 12:31:57;;;;;;;4.75;2.13;;;16.70;99.90;;;;;;5033068;28;20489;-41
2022/06/08 12:34:43;;;;;;;4.72;2.10;;;16.70;99.90;;;;;;5044466;28;20544;-35
2022/06/08 12:37:35;;;;;;;2.97;1.98;;;16.70;99.90;;;;;;5036228;28;20474;-37
2022/06/08 12:40:16;;;;;;;9.00;2.38;;;16.70;99.90;;;;;;5049467;28;20036;-34
2022/06/08 12:42:54;;;;;;;6.28;2.30;;;16.70;99.90;;;;;;5051642;28;20531;-33
2022/06/08 12:45:36;;;;;;;9.50;2.67;;;16.70;99.90;;;;;;5050849;28;20040;-35
2022/06/08 12:48:26;;;;;;;5.00;1.90;;;16.70;99.90;;;;;;5037851;28;20374;-35
2022/06/08 12:50:53;;;;;;;9.38;2.45;;;16.70;99.90;;;;;;5054039;28;20120;-46
2022/06/08 12:53:19;;;;;;;5.30;2.13;;;16.70;99.90;;;;;;5053061;28;20025;-45
2022/06/08 12:55:45;;;;;;;2.65;2.10;;;16.70;99.90;;;;;;5053898;28;20032;-47
2022/06/08 12:58:11;;;;;;;5.65;2.63;;;16.70;99.90;;;;;;5048980;28;20041;-45
2022/06/08 13:00:44;;;;;;;4.65;2.30;;;16.60;99.90;;;;;;5051267;28;20054;-45
2022/06/08 13:03:15;;;;;;;3.53;2.60;;;16.60;99.90;;;;;;5053205;28;20029;-37
2022/06/08 13:05:41;;;;;;;7.13;2.38;;;16.70;99.90;;;;;;5041757;28;20022;-38
2022/06/08 13:08:07;;;;;;;5.85;2.80;;;16.60;99.90;;;;;;5044746;28;20043;-36
2022/06/08 13:10:33;;;;;;;5.55;2.60;;;16.60;99.90;;;;;;5052705;28;20025;-36
2022/06/08 13:13:03;;;;;;;2.70;2.33;;;16.50;99.90;;;;;;5049820;28;20025;-46
2022/06/08 13:15:39;;;;;;;7.68;2.00;;;16.60;99.90;;;;;;5041987;28;20056;-38
2022/06/08 13:18:06;;;;;;;2.72;2.00;;;16.60;99.90;;;;;;5049880;28;20040;-39
2022/06/08 13:20:35;;;;;;;5.18;1.80;;;16.50;99.90;;;;;;5045072;28;20044;-38
2022/06/08 13:23:02;;;;;;;1.90;1.80;;;16.50;99.90;;;;;;5049830;28;20393;-39